Time;durP1;ratioP1;P1;durP2;ratioP2;P2;SDS_P1;SDS_P2;PMS_P1;PMS_P2;Temp;Humidity;BMP_temperature;BMP_pressure;BME280_temperature;BME280_humidity;BME280_pressure;Samples;Min_cycle;Max_cycle;Signal;HPM_P1;HPM_P2
2023/12/23 00:00:24;;;;;;;6.73;0.60;;;6.90;99.90;;;;;;5054188;28;20454;-84
2023/12/23 00:02:50;;;;;;;0.40;0.40;;;6.90;99.90;;;;;;5054052;28;20436;-85
2023/12/23 00:05:18;;;;;;;0.60;0.60;;;7.00;99.90;;;;;;5054088;28;20438;-84
2023/12/23 00:07:45;;;;;;;0.40;0.40;;;7.00;99.90;;;;;;5053987;28;20982;-85
2023/12/23 00:10:12;;;;;;;0.87;0.40;;;7.00;99.90;;;;;;5054010;28;20827;-85
2023/12/23 00:12:38;;;;;;;0.73;0.30;;;7.00;99.90;;;;;;5054071;28;20457;-85
2023/12/23 00:15:06;;;;;;;0.30;0.30;;;7.00;99.90;;;;;;5053727;28;20807;-85
2023/12/23 00:17:34;;;;;;;0.37;0.37;;;6.90;99.90;;;;;;5055865;28;20473;-84
2023/12/23 00:20:01;;;;;;;0.30;0.30;;;6.90;99.90;;;;;;5054221;28;20442;-85
2023/12/23 00:22:27;;;;;;;0.37;0.33;;;6.90;99.90;;;;;;5053950;28;20449;-85
2023/12/23 00:24:54;;;;;;;0.33;0.30;;;6.90;99.90;;;;;;5054728;28;20446;-84
2023/12/23 00:27:21;;;;;;;0.30;0.30;;;7.00;99.90;;;;;;5054819;28;20472;-84
2023/12/23 00:29:48;;;;;;;0.60;0.30;;;7.00;99.90;;;;;;5054501;28;20449;-84
2023/12/23 00:32:14;;;;;;;0.40;0.30;;;7.00;99.90;;;;;;5054228;28;20456;-84
2023/12/23 00:34:42;;;;;;;5.80;0.40;;;7.00;99.90;;;;;;5054861;28;20449;-85
2023/12/23 00:37:09;;;;;;;0.40;0.40;;;7.00;99.90;;;;;;5054005;28;20489;-84
2023/12/23 00:39:36;;;;;;;1.93;0.50;;;7.00;99.90;;;;;;5054195;28;20449;-85
2023/12/23 00:42:03;;;;;;;0.30;0.30;;;7.00;99.90;;;;;;5053884;28;20805;-85
2023/12/23 00:44:29;;;;;;;0.30;0.30;;;7.00;99.90;;;;;;5054059;28;20442;-84
2023/12/23 00:46:56;;;;;;;0.93;0.60;;;7.10;99.90;;;;;;5053907;28;20465;-85
2023/12/23 00:49:23;;;;;;;0.73;0.73;;;7.00;99.90;;;;;;5053926;28;20441;-85
2023/12/23 00:51:51;;;;;;;0.30;0.30;;;7.00;99.90;;;;;;5058823;28;20444;-85
2023/12/23 00:54:19;;;;;;;0.30;0.30;;;7.00;99.90;;;;;;5068658;28;20445;-83
2023/12/23 00:56:45;;;;;;;0.30;0.30;;;6.90;99.90;;;;;;5052884;28;20865;-83
2023/12/23 00:59:12;;;;;;;0.80;0.40;;;6.90;99.90;;;;;;5053837;28;20810;-85
2023/12/23 01:01:39;;;;;;;0.30;0.30;;;6.90;99.90;;;;;;5057162;28;20430;-85
2023/12/23 01:04:06;;;;;;;0.40;0.40;;;7.00;99.90;;;;;;5057068;28;20441;-85
2023/12/23 01:06:32;;;;;;;0.83;0.40;;;7.00;99.90;;;;;;5056931;28;20452;-85
2023/12/23 01:09:00;;;;;;;0.87;0.30;;;7.00;99.90;;;;;;5056599;28;20434;-85
2023/12/23 01:11:27;;;;;;;1.13;0.30;;;7.00;99.90;;;;;;5056927;28;20434;-85
2023/12/23 01:13:54;;;;;;;0.30;0.20;;;7.00;99.90;;;;;;5056830;28;20449;-86
2023/12/23 01:16:20;;;;;;;0.30;0.30;;;7.00;99.90;;;;;;5056577;28;21017;-85
2023/12/23 01:18:47;;;;;;;0.40;0.30;;;6.90;99.90;;;;;;5056661;28;20461;-83
2023/12/23 01:21:14;;;;;;;1.03;0.30;;;6.90;99.90;;;;;;5057146;28;20445;-85
2023/12/23 01:23:41;;;;;;;0.60;0.30;;;6.90;99.90;;;;;;5056875;28;20452;-85
2023/12/23 01:26:09;;;;;;;0.30;0.20;;;6.90;99.90;;;;;;5056960;28;20469;-84
2023/12/23 01:28:36;;;;;;;0.30;0.30;;;6.90;99.90;;;;;;5056680;28;20473;-85
2023/12/23 01:31:03;;;;;;;3.40;0.50;;;6.80;99.90;;;;;;5056848;28;20813;-85
2023/12/23 01:33:28;;;;;;;0.40;0.30;;;6.80;99.90;;;;;;5056717;28;20454;-85
2023/12/23 01:35:55;;;;;;;0.30;0.20;;;6.80;99.90;;;;;;5056763;28;20481;-84
2023/12/23 01:38:22;;;;;;;0.30;0.30;;;6.80;99.90;;;;;;5056558;28;20614;-84
2023/12/23 01:40:49;;;;;;;0.30;0.30;;;6.80;99.90;;;;;;5056611;28;20446;-84
2023/12/23 01:43:16;;;;;;;0.40;0.30;;;6.80;99.90;;;;;;5056724;28;20449;-84
2023/12/23 01:45:43;;;;;;;2.10;0.33;;;6.70;99.90;;;;;;5056715;28;20974;-84
2023/12/23 01:48:11;;;;;;;0.50;0.40;;;6.70;99.90;;;;;;5056881;28;20469;-84
2023/12/23 01:50:39;;;;;;;0.30;0.30;;;6.70;99.90;;;;;;5056701;28;20450;-84
2023/12/23 01:53:06;;;;;;;1.03;0.53;;;6.70;99.90;;;;;;5057300;28;20457;-84
2023/12/23 01:55:33;;;;;;;0.40;0.30;;;6.60;99.90;;;;;;5057645;28;20511;-84
2023/12/23 01:58:00;;;;;;;0.30;0.20;;;6.70;99.90;;;;;;5057166;28;20465;-84
2023/12/23 02:00:29;;;;;;;1.17;0.40;;;6.70;99.90;;;;;;5057027;28;20946;-84
2023/12/23 02:02:57;;;;;;;0.40;0.30;;;6.60;99.90;;;;;;5057424;28;20442;-84
2023/12/23 02:05:24;;;;;;;0.60;0.30;;;6.70;99.90;;;;;;5057959;28;20446;-85
2023/12/23 02:07:51;;;;;;;0.50;0.40;;;6.70;99.90;;;;;;5057327;28;20609;-84
2023/12/23 02:10:18;;;;;;;1.17;0.40;;;6.70;99.90;;;;;;5056901;28;20450;-85
2023/12/23 02:12:56;;;;;;;12.93;1.27;;;6.70;99.90;;;;;;5057380;28;20532;-84
2023/12/23 02:15:24;;;;;;;0.73;0.40;;;6.70;99.90;;;;;;5056941;28;20892;-85
2023/12/23 02:18:00;;;;;;;0.30;0.30;;;6.70;99.90;;;;;;5056952;28;20887;-84
2023/12/23 02:20:27;;;;;;;0.30;0.30;;;6.70;99.90;;;;;;5056422;28;20441;-84
2023/12/23 02:22:55;;;;;;;0.30;0.30;;;6.70;99.90;;;;;;5056433;28;20939;-84
2023/12/23 02:25:23;;;;;;;0.40;0.40;;;6.70;99.90;;;;;;5056486;28;20442;-84
2023/12/23 02:27:53;;;;;;;0.40;0.30;;;6.80;99.90;;;;;;5056223;28;20465;-85
2023/12/23 02:30:22;;;;;;;0.30;0.30;;;6.70;99.90;;;;;;5056103;28;20430;-84
2023/12/23 02:32:49;;;;;;;0.30;0.30;;;6.70;99.90;;;;;;5055431;28;20442;-85
2023/12/23 02:35:16;;;;;;;0.50;0.40;;;6.70;99.90;;;;;;5056131;28;20442;-85
2023/12/23 02:37:43;;;;;;;0.30;0.20;;;6.70;99.90;;;;;;5055468;28;20477;-85
2023/12/23 02:40:12;;;;;;;0.40;0.30;;;6.70;99.90;;;;;;5055828;28;20449;-85
2023/12/23 02:42:38;;;;;;;0.50;0.50;;;6.70;99.90;;;;;;5055382;28;20442;-85
2023/12/23 02:45:07;;;;;;;0.30;0.30;;;6.70;99.90;;;;;;5055500;28;20456;-84
2023/12/23 02:47:33;;;;;;;0.30;0.30;;;6.70;99.90;;;;;;5055866;28;20465;-85
2023/12/23 02:50:00;;;;;;;0.40;0.40;;;6.70;99.90;;;;;;5055475;28;20464;-85
2023/12/23 02:52:27;;;;;;;0.43;0.43;;;6.60;99.90;;;;;;5055555;28;20448;-85
2023/12/23 02:54:54;;;;;;;0.30;0.30;;;6.60;99.90;;;;;;5056275;28;20450;-85
2023/12/23 02:57:22;;;;;;;0.30;0.30;;;6.60;99.90;;;;;;5055509;28;20489;-85
2023/12/23 02:59:48;;;;;;;5.10;0.50;;;6.60;99.90;;;;;;5056090;28;20499;-84
2023/12/23 03:02:15;;;;;;;0.40;0.40;;;6.50;99.90;;;;;;5056382;28;20445;-85
2023/12/23 03:04:42;;;;;;;0.93;0.50;;;6.60;99.90;;;;;;5076381;28;20434;-83
2023/12/23 03:07:09;;;;;;;0.33;0.30;;;6.50;99.90;;;;;;5054414;28;20508;-85
2023/12/23 03:09:36;;;;;;;5.60;0.63;;;6.50;99.90;;;;;;5054968;28;20487;-84
2023/12/23 03:12:02;;;;;;;0.50;0.40;;;6.50;99.90;;;;;;5054712;28;20807;-85
2023/12/23 03:14:30;;;;;;;1.33;0.50;;;6.50;99.90;;;;;;5055407;28;20453;-85
2023/12/23 03:16:57;;;;;;;0.40;0.30;;;6.40;99.90;;;;;;5054465;28;20490;-84
2023/12/23 03:19:24;;;;;;;0.30;0.30;;;6.40;99.90;;;;;;5054237;28;20943;-85
2023/12/23 03:21:51;;;;;;;3.90;0.40;;;6.50;99.90;;;;;;5054742;28;20446;-85
2023/12/23 03:24:17;;;;;;;0.30;0.30;;;6.40;99.90;;;;;;5054772;28;20449;-84
2023/12/23 03:26:44;;;;;;;1.00;0.60;;;6.40;99.90;;;;;;5054936;28;20469;-85
2023/12/23 03:29:11;;;;;;;0.40;0.30;;;6.40;99.90;;;;;;5054541;28;20449;-85
2023/12/23 03:31:39;;;;;;;1.43;0.53;;;6.40;99.90;;;;;;5054491;28;20442;-85
2023/12/23 03:34:06;;;;;;;0.30;0.23;;;6.40;99.90;;;;;;5054272;28;20927;-85
2023/12/23 03:36:32;;;;;;;0.30;0.30;;;6.40;99.90;;;;;;5054050;28;20476;-84
2023/12/23 03:38:59;;;;;;;0.67;0.40;;;6.50;99.90;;;;;;5056600;28;20536;-85
2023/12/23 03:41:26;;;;;;;0.70;0.30;;;6.50;99.90;;;;;;5054504;28;20457;-85
2023/12/23 03:43:52;;;;;;;0.40;0.40;;;6.50;99.90;;;;;;5054442;28;20446;-85
2023/12/23 03:46:20;;;;;;;0.30;0.30;;;6.50;99.90;;;;;;5054499;28;20794;-85
2023/12/23 03:48:48;;;;;;;0.40;0.30;;;6.50;99.90;;;;;;5054849;28;20519;-85
2023/12/23 03:51:15;;;;;;;0.87;0.30;;;6.50;99.90;;;;;;5054487;28;20943;-85
2023/12/23 03:53:42;;;;;;;0.30;0.30;;;6.40;99.90;;;;;;5054534;28;20544;-85
2023/12/23 03:56:09;;;;;;;0.40;0.33;;;6.40;99.90;;;;;;5053970;28;20985;-85
2023/12/23 03:58:36;;;;;;;0.30;0.30;;;6.50;99.90;;;;;;5054518;28;20480;-85
2023/12/23 04:01:03;;;;;;;0.30;0.30;;;6.50;99.90;;;;;;5054214;28;20446;-85
2023/12/23 04:03:30;;;;;;;0.80;0.60;;;6.50;99.90;;;;;;5054189;28;20855;-85
2023/12/23 04:05:58;;;;;;;0.30;0.30;;;6.50;99.90;;;;;;5054505;28;20454;-85
2023/12/23 04:08:25;;;;;;;0.30;0.30;;;6.50;99.90;;;;;;5053971;28;20470;-84
2023/12/23 04:10:52;;;;;;;0.30;0.30;;;6.50;99.90;;;;;;5053992;28;20810;-84
2023/12/23 04:13:19;;;;;;;0.37;0.30;;;6.50;99.90;;;;;;5054352;28;20477;-85
2023/12/23 04:15:45;;;;;;;0.40;0.40;;;6.50;99.90;;;;;;5054299;28;20528;-85
2023/12/23 04:18:12;;;;;;;1.03;0.30;;;6.40;99.90;;;;;;5053743;28;21041;-85
2023/12/23 04:20:39;;;;;;;0.40;0.30;;;6.50;99.90;;;;;;5054311;28;20438;-85
2023/12/23 04:23:06;;;;;;;0.70;0.30;;;6.40;99.90;;;;;;5054396;28;20549;-85
2023/12/23 04:25:33;;;;;;;0.50;0.37;;;6.50;99.90;;;;;;5054040;28;20449;-84
2023/12/23 04:28:00;;;;;;;0.40;0.30;;;6.50;99.90;;;;;;5054182;28;20558;-85
2023/12/23 04:30:27;;;;;;;0.30;0.30;;;6.60;99.90;;;;;;5053674;28;20957;-85
2023/12/23 04:32:53;;;;;;;0.40;0.30;;;6.60;99.90;;;;;;5054130;28;20444;-85
2023/12/23 04:35:20;;;;;;;0.50;0.27;;;6.70;99.90;;;;;;5056697;28;20441;-85
2023/12/23 04:37:47;;;;;;;4.53;0.43;;;6.70;99.90;;;;;;5058106;28;20485;-85
2023/12/23 04:40:15;;;;;;;0.40;0.30;;;6.70;99.90;;;;;;5058078;28;20441;-85
2023/12/23 04:42:43;;;;;;;0.40;0.40;;;6.80;99.90;;;;;;5057878;28;21034;-85
2023/12/23 04:45:10;;;;;;;0.40;0.30;;;6.80;99.90;;;;;;5058130;28;20442;-85
2023/12/23 04:47:37;;;;;;;0.30;0.30;;;6.80;99.90;;;;;;5057542;28;20466;-85
2023/12/23 04:50:05;;;;;;;0.40;0.30;;;6.80;99.90;;;;;;5057725;28;20446;-85
2023/12/23 04:52:31;;;;;;;0.30;0.30;;;6.90;99.90;;;;;;5058089;28;20437;-85
2023/12/23 04:54:59;;;;;;;0.40;0.30;;;6.90;99.90;;;;;;5057830;28;20927;-85
2023/12/23 04:57:27;;;;;;;0.30;0.30;;;6.80;99.90;;;;;;5057448;28;20490;-85
2023/12/23 04:59:54;;;;;;;0.30;0.20;;;6.90;99.90;;;;;;5057431;28;20442;-85
2023/12/23 05:02:21;;;;;;;0.43;0.43;;;6.90;99.90;;;;;;5058265;28;20927;-85
2023/12/23 05:04:47;;;;;;;0.30;0.30;;;6.90;99.90;;;;;;5057593;28;20449;-86
2023/12/23 05:07:14;;;;;;;0.40;0.40;;;6.90;99.90;;;;;;5057107;28;20501;-85
2023/12/23 05:09:41;;;;;;;0.30;0.30;;;6.90;99.90;;;;;;5057075;28;20934;-85
2023/12/23 05:12:08;;;;;;;0.30;0.30;;;6.90;99.90;;;;;;5057390;28;20446;-85
2023/12/23 05:14:36;;;;;;;0.30;0.20;;;7.00;99.90;;;;;;5076661;28;20432;-80
2023/12/23 05:17:03;;;;;;;0.40;0.30;;;7.00;99.90;;;;;;5059531;28;20485;-84
2023/12/23 05:19:30;;;;;;;0.30;0.27;;;7.00;99.90;;;;;;5056575;28;20446;-84
2023/12/23 05:21:56;;;;;;;0.30;0.30;;;7.00;99.90;;;;;;5056923;28;20449;-85
2023/12/23 05:24:23;;;;;;;1.13;0.47;;;7.10;99.90;;;;;;5056867;28;20957;-85
2023/12/23 05:26:50;;;;;;;0.30;0.30;;;7.10;99.90;;;;;;5056299;28;20993;-85
2023/12/23 05:29:17;;;;;;;0.30;0.20;;;7.00;99.90;;;;;;5056642;28;20445;-85
2023/12/23 05:31:45;;;;;;;0.30;0.20;;;7.00;99.90;;;;;;5056605;28;20456;-85
2023/12/23 05:34:12;;;;;;;0.30;0.30;;;7.00;99.90;;;;;;5056135;28;20946;-85
2023/12/23 05:36:39;;;;;;;0.30;0.30;;;7.00;99.90;;;;;;5056436;28;20938;-85
2023/12/23 05:39:06;;;;;;;1.10;0.33;;;7.00;99.90;;;;;;5056511;28;20445;-85
2023/12/23 05:41:33;;;;;;;0.30;0.30;;;6.90;99.90;;;;;;5056368;28;20864;-85
2023/12/23 05:44:00;;;;;;;0.30;0.30;;;7.00;99.90;;;;;;5056284;28;20474;-85
2023/12/23 05:46:27;;;;;;;0.30;0.30;;;7.00;99.90;;;;;;5055848;28;20472;-84
2023/12/23 05:48:55;;;;;;;0.40;0.30;;;7.00;99.90;;;;;;5056337;28;20442;-85
2023/12/23 05:51:22;;;;;;;0.30;0.20;;;6.90;99.90;;;;;;5055969;28;20425;-85
2023/12/23 05:53:48;;;;;;;0.30;0.20;;;6.90;99.90;;;;;;5056027;28;20935;-85
2023/12/23 05:56:15;;;;;;;0.30;0.20;;;6.90;99.90;;;;;;5056042;28;20442;-84
2023/12/23 05:58:42;;;;;;;0.30;0.30;;;6.90;99.90;;;;;;5055926;28;20490;-84
2023/12/23 06:01:09;;;;;;;0.30;0.20;;;6.90;99.90;;;;;;5056212;28;20453;-85
2023/12/23 06:03:35;;;;;;;0.30;0.20;;;6.90;99.90;;;;;;5056237;28;20862;-84
2023/12/23 06:06:04;;;;;;;0.30;0.20;;;6.80;99.90;;;;;;5056297;28;20461;-85
2023/12/23 06:08:30;;;;;;;0.30;0.30;;;6.80;99.90;;;;;;5056004;28;20484;-85
2023/12/23 06:10:57;;;;;;;0.30;0.20;;;6.80;99.90;;;;;;5056657;28;20445;-85
2023/12/23 06:13:24;;;;;;;0.30;0.30;;;6.90;99.90;;;;;;5056242;28;20521;-85
2023/12/23 06:15:51;;;;;;;0.30;0.20;;;6.80;99.90;;;;;;5056383;28;20825;-85
2023/12/23 06:18:18;;;;;;;0.30;0.30;;;6.80;99.90;;;;;;5056126;28;20488;-85
2023/12/23 06:20:45;;;;;;;4.53;0.50;;;6.90;99.90;;;;;;5056071;28;20450;-85
2023/12/23 06:23:13;;;;;;;0.30;0.20;;;6.90;99.90;;;;;;5055954;28;20814;-85
2023/12/23 06:25:40;;;;;;;0.30;0.20;;;6.90;99.90;;;;;;5055957;28;20464;-85
2023/12/23 06:28:07;;;;;;;0.30;0.30;;;6.80;99.90;;;;;;5055863;28;20979;-85
2023/12/23 06:30:33;;;;;;;0.30;0.20;;;6.80;99.90;;;;;;5055973;28;20450;-85
2023/12/23 06:33:00;;;;;;;0.30;0.20;;;6.80;99.90;;;;;;5055774;28;20465;-85
2023/12/23 06:35:27;;;;;;;0.30;0.20;;;6.80;99.90;;;;;;5056016;28;20450;-85
2023/12/23 06:37:54;;;;;;;0.30;0.20;;;6.80;99.90;;;;;;5055578;28;20486;-85
2023/12/23 06:40:22;;;;;;;0.30;0.20;;;6.90;99.90;;;;;;5055472;28;20809;-85
2023/12/23 06:42:48;;;;;;;0.40;0.40;;;6.80;99.90;;;;;;5055187;28;20950;-85
2023/12/23 06:45:16;;;;;;;0.30;0.20;;;6.80;99.90;;;;;;5055474;28;20640;-85
2023/12/23 06:47:43;;;;;;;0.30;0.20;;;6.90;99.90;;;;;;5055401;28;20466;-85
2023/12/23 06:50:10;;;;;;;0.30;0.30;;;6.80;99.90;;;;;;5055353;28;20511;-85
2023/12/23 06:52:37;;;;;;;0.30;0.20;;;6.80;99.90;;;;;;5055657;28;20442;-85
2023/12/23 06:55:04;;;;;;;0.40;0.30;;;6.90;99.90;;;;;;5055282;28;20643;-85
2023/12/23 06:57:32;;;;;;;0.50;0.30;;;6.80;99.90;;;;;;5054169;28;20482;-85
2023/12/23 06:59:59;;;;;;;0.30;0.30;;;6.90;99.90;;;;;;5055242;28;20807;-85
2023/12/23 07:02:26;;;;;;;0.30;0.20;;;6.80;99.90;;;;;;5055045;28;20456;-85
2023/12/23 07:04:53;;;;;;;0.30;0.20;;;6.80;99.90;;;;;;5054815;28;20959;-85
2023/12/23 07:07:19;;;;;;;0.30;0.30;;;6.80;99.90;;;;;;5054877;28;20481;-85
2023/12/23 07:09:46;;;;;;;0.30;0.30;;;6.80;99.90;;;;;;5055263;28;20452;-85
2023/12/23 07:12:13;;;;;;;0.30;0.30;;;6.80;99.90;;;;;;5055178;28;20450;-85
2023/12/23 07:14:41;;;;;;;0.30;0.20;;;6.70;99.90;;;;;;5055216;28;20446;-85
2023/12/23 07:17:08;;;;;;;0.30;0.20;;;6.60;99.90;;;;;;5055300;28;20466;-85
2023/12/23 07:19:34;;;;;;;0.30;0.30;;;6.60;99.90;;;;;;5055155;28;20943;-84
2023/12/23 07:22:02;;;;;;;0.30;0.20;;;6.60;99.90;;;;;;5055035;28;20436;-85
2023/12/23 07:24:29;;;;;;;0.30;0.20;;;6.60;99.90;;;;;;5061071;28;20507;-84
2023/12/23 07:26:56;;;;;;;0.40;0.30;;;6.60;99.90;;;;;;5057918;28;20492;-84
2023/12/23 07:29:23;;;;;;;0.30;0.30;;;6.60;99.90;;;;;;5054565;28;20448;-84
2023/12/23 07:31:51;;;;;;;0.30;0.20;;;6.60;99.90;;;;;;5054277;28;20442;-85
2023/12/23 07:34:18;;;;;;;0.40;0.30;;;6.60;99.90;;;;;;5054490;28;20450;-85
2023/12/23 07:36:44;;;;;;;0.30;0.20;;;6.50;99.90;;;;;;5053754;28;20461;-85
2023/12/23 07:39:11;;;;;;;0.30;0.20;;;6.60;99.90;;;;;;5054244;28;20493;-85
2023/12/23 07:41:38;;;;;;;0.30;0.20;;;6.50;99.90;;;;;;5053943;28;20977;-85
2023/12/23 07:44:05;;;;;;;0.30;0.20;;;6.50;99.90;;;;;;5054216;28;20441;-85
2023/12/23 07:46:31;;;;;;;0.30;0.20;;;6.50;99.90;;;;;;5053911;28;20438;-85
2023/12/23 07:48:59;;;;;;;0.33;0.27;;;6.50;99.90;;;;;;5053921;28;20442;-85
2023/12/23 07:51:26;;;;;;;0.30;0.30;;;6.50;99.90;;;;;;5054110;28;20446;-84
2023/12/23 07:53:53;;;;;;;0.40;0.30;;;6.50;99.90;;;;;;5054034;28;20464;-85
2023/12/23 07:56:20;;;;;;;0.30;0.30;;;6.50;99.90;;;;;;5053856;28;20444;-84
2023/12/23 07:58:46;;;;;;;0.30;0.20;;;6.60;99.90;;;;;;5053744;28;20484;-84
2023/12/23 08:01:13;;;;;;;0.60;0.30;;;6.60;99.90;;;;;;5054171;28;20825;-85
2023/12/23 08:03:40;;;;;;;0.30;0.30;;;6.60;99.90;;;;;;5054439;28;20939;-81
2023/12/23 08:06:08;;;;;;;0.40;0.30;;;6.60;99.90;;;;;;5054981;28;20959;-81
2023/12/23 08:08:35;;;;;;;0.30;0.30;;;6.60;99.90;;;;;;5053077;28;20527;-81
2023/12/23 08:11:02;;;;;;;0.30;0.20;;;6.60;99.90;;;;;;5053768;28;20863;-85
2023/12/23 08:13:29;;;;;;;0.30;0.30;;;6.60;99.90;;;;;;5054135;28;20460;-81
2023/12/23 08:15:56;;;;;;;0.30;0.20;;;6.60;99.90;;;;;;5056670;28;20805;-84
2023/12/23 08:18:22;;;;;;;0.30;0.30;;;6.60;99.90;;;;;;5054530;28;20517;-84
2023/12/23 08:20:49;;;;;;;0.67;0.50;;;6.60;99.90;;;;;;5054212;28;20957;-84
2023/12/23 08:23:17;;;;;;;0.30;0.30;;;6.60;99.90;;;;;;5054502;28;20450;-84
2023/12/23 08:25:44;;;;;;;0.30;0.30;;;6.60;99.90;;;;;;5054718;28;20445;-84
2023/12/23 08:28:11;;;;;;;0.40;0.40;;;6.70;99.90;;;;;;5054525;28;20469;-84
2023/12/23 08:30:38;;;;;;;0.30;0.30;;;6.70;99.90;;;;;;5054144;28;20947;-84
2023/12/23 08:33:05;;;;;;;0.30;0.30;;;6.70;99.90;;;;;;5054029;28;20449;-84
2023/12/23 08:35:32;;;;;;;0.30;0.30;;;6.70;99.90;;;;;;5054169;28;20446;-84
2023/12/23 08:37:59;;;;;;;0.30;0.23;;;6.70;99.90;;;;;;5054462;28;20543;-84
2023/12/23 08:40:27;;;;;;;0.30;0.20;;;6.70;99.90;;;;;;5054159;28;20507;-84
2023/12/23 08:42:54;;;;;;;0.30;0.20;;;6.70;99.90;;;;;;5053896;28;20446;-84
2023/12/23 08:45:21;;;;;;;0.30;0.20;;;6.70;99.90;;;;;;5053847;28;20460;-84
2023/12/23 08:47:47;;;;;;;0.30;0.20;;;6.80;99.90;;;;;;5054621;28;20469;-84
2023/12/23 08:50:14;;;;;;;0.30;0.20;;;6.80;99.90;;;;;;5054015;28;20454;-84
2023/12/23 08:52:41;;;;;;;0.30;0.30;;;6.80;99.90;;;;;;5053676;28;20434;-84
2023/12/23 08:55:08;;;;;;;0.30;0.30;;;6.80;99.90;;;;;;5054249;28;20819;-84
2023/12/23 08:57:38;;;;;;;0.40;0.30;;;6.90;99.90;;;;;;5053840;28;20971;-84
2023/12/23 09:00:06;;;;;;;0.43;0.30;;;6.90;99.90;;;;;;5053697;28;20445;-84
2023/12/23 09:02:33;;;;;;;0.30;0.30;;;6.90;99.90;;;;;;5053387;28;20460;-82
2023/12/23 09:05:00;;;;;;;0.30;0.30;;;7.00;99.90;;;;;;5054151;28;20444;-85
2023/12/23 09:07:28;;;;;;;0.30;0.20;;;6.90;99.90;;;;;;5053404;28;20998;-85
2023/12/23 09:09:55;;;;;;;0.30;0.30;;;7.00;99.90;;;;;;5054361;28;20935;-85
2023/12/23 09:12:21;;;;;;;0.30;0.20;;;7.00;99.90;;;;;;5053564;28;20855;-85
2023/12/23 09:14:50;;;;;;;0.30;0.20;;;7.00;99.90;;;;;;5053496;28;20437;-85
2023/12/23 09:17:17;;;;;;;0.30;0.20;;;7.00;99.90;;;;;;5053526;28;20551;-84
2023/12/23 09:19:44;;;;;;;0.30;0.20;;;7.10;99.90;;;;;;5053418;28;20490;-84
2023/12/23 09:22:10;;;;;;;0.30;0.20;;;7.10;99.90;;;;;;5057043;28;20541;-85
2023/12/23 09:24:38;;;;;;;0.30;0.20;;;7.20;99.90;;;;;;5064357;28;20418;-85
2023/12/23 09:27:05;;;;;;;0.30;0.30;;;7.20;99.90;;;;;;5072772;28;20450;-84
2023/12/23 09:29:32;;;;;;;0.30;0.30;;;7.30;99.90;;;;;;5056950;28;20441;-84
2023/12/23 09:32:00;;;;;;;0.37;0.30;;;7.30;99.90;;;;;;5056612;28;20444;-84
2023/12/23 09:34:27;;;;;;;0.30;0.30;;;7.30;99.90;;;;;;5056536;28;20457;-85
2023/12/23 09:36:54;;;;;;;0.30;0.30;;;7.30;99.90;;;;;;5056221;28;21032;-85
2023/12/23 09:39:20;;;;;;;2.63;0.37;;;7.40;99.90;;;;;;5056418;28;20564;-85
2023/12/23 09:41:48;;;;;;;0.30;0.20;;;7.40;99.90;;;;;;5056472;28;20442;-83
2023/12/23 09:44:15;;;;;;;0.40;0.40;;;7.40;99.90;;;;;;5056218;28;20467;-83
2023/12/23 09:46:42;;;;;;;0.30;0.30;;;7.40;99.90;;;;;;5056017;28;20438;-85
2023/12/23 09:49:10;;;;;;;0.40;0.30;;;7.40;99.90;;;;;;5056700;28;20422;-85
2023/12/23 09:51:36;;;;;;;0.30;0.30;;;7.40;99.90;;;;;;5055875;28;20957;-85
2023/12/23 09:54:05;;;;;;;0.30;0.30;;;7.40;99.90;;;;;;5056384;28;20457;-85
2023/12/23 09:56:32;;;;;;;0.30;0.20;;;7.40;99.90;;;;;;5056030;28;20445;-85
2023/12/23 09:58:59;;;;;;;0.40;0.33;;;7.30;99.90;;;;;;5056470;28;20938;-85
2023/12/23 10:01:26;;;;;;;0.30;0.30;;;7.30;99.90;;;;;;5057724;28;20448;-84
2023/12/23 10:03:53;;;;;;;0.30;0.20;;;7.40;99.90;;;;;;5058090;28;20453;-84
2023/12/23 10:06:22;;;;;;;0.30;0.30;;;7.40;99.90;;;;;;5058213;28;20454;-83
2023/12/23 10:08:50;;;;;;;0.30;0.30;;;7.40;99.90;;;;;;5057103;28;20500;-83
2023/12/23 10:11:17;;;;;;;0.30;0.30;;;7.40;99.90;;;;;;5057009;28;20433;-84
2023/12/23 10:13:44;;;;;;;0.57;0.33;;;7.40;99.90;;;;;;5056575;28;20431;-83
2023/12/23 10:16:11;;;;;;;0.30;0.30;;;7.40;99.90;;;;;;5056959;28;20442;-83
2023/12/23 10:18:38;;;;;;;0.30;0.30;;;7.50;99.90;;;;;;5056712;28;20485;-84
2023/12/23 10:21:05;;;;;;;0.30;0.20;;;7.40;99.90;;;;;;5057081;28;20521;-83
2023/12/23 10:23:33;;;;;;;0.40;0.30;;;7.50;99.90;;;;;;5056999;28;20446;-83
2023/12/23 10:26:01;;;;;;;0.30;0.30;;;7.50;99.90;;;;;;5057801;28;20784;-83
2023/12/23 10:28:28;;;;;;;0.30;0.20;;;7.50;99.90;;;;;;5056620;28;20466;-84
2023/12/23 10:31:00;;;;;;;0.30;0.23;;;7.50;99.90;;;;;;5057557;28;20438;-84
2023/12/23 10:33:31;;;;;;;0.30;0.30;;;7.50;99.90;;;;;;5056822;28;20434;-84
2023/12/23 10:35:59;;;;;;;0.30;0.30;;;7.50;99.90;;;;;;5057299;28;20427;-84
2023/12/23 10:38:27;;;;;;;0.30;0.30;;;7.50;99.90;;;;;;5056328;28;20530;-84
2023/12/23 10:41:05;;;;;;;0.30;0.20;;;7.50;99.90;;;;;;5056377;28;20806;-84
2023/12/23 10:43:36;;;;;;;0.30;0.20;;;7.50;99.90;;;;;;5056044;28;20410;-84
2023/12/23 10:46:04;;;;;;;0.30;0.30;;;7.40;99.90;;;;;;5057451;28;20414;-84
2023/12/23 10:48:33;;;;;;;0.30;0.20;;;7.40;99.90;;;;;;5056062;28;20515;-84
2023/12/23 10:51:02;;;;;;;0.30;0.20;;;7.40;99.90;;;;;;5056268;28;20441;-84
2023/12/23 10:53:30;;;;;;;0.30;0.20;;;7.30;99.90;;;;;;5055763;28;20496;-84
2023/12/23 10:55:58;;;;;;;0.30;0.30;;;7.40;99.90;;;;;;5055639;28;20960;-84
2023/12/23 10:58:27;;;;;;;0.57;0.30;;;7.40;99.90;;;;;;5055308;28;20466;-85
2023/12/23 11:00:54;;;;;;;0.30;0.30;;;7.40;99.90;;;;;;5055494;28;20449;-84
2023/12/23 11:03:22;;;;;;;0.40;0.40;;;7.30;99.90;;;;;;5055354;28;20445;-85
2023/12/23 11:05:50;;;;;;;0.40;0.40;;;7.30;99.90;;;;;;5055083;28;20440;-84
2023/12/23 11:08:21;;;;;;;0.30;0.20;;;7.20;99.90;;;;;;5055389;28;20481;-84
2023/12/23 11:10:48;;;;;;;1.30;0.30;;;7.20;99.90;;;;;;5055136;28;20476;-84
2023/12/23 11:13:16;;;;;;;0.30;0.30;;;7.20;99.90;;;;;;5055374;28;20442;-84
2023/12/23 11:15:43;;;;;;;2.10;0.40;;;7.10;99.90;;;;;;5055465;28;20442;-84
2023/12/23 11:18:10;;;;;;;0.30;0.30;;;7.10;99.90;;;;;;5055434;28;20473;-84
2023/12/23 11:20:45;;;;;;;0.30;0.30;;;7.00;99.90;;;;;;5055405;28;20562;-85
2023/12/23 11:23:32;;;;;;;0.30;0.20;;;7.10;99.90;;;;;;5055078;28;20524;-84
2023/12/23 11:25:58;;;;;;;0.73;0.30;;;7.10;99.90;;;;;;5055143;28;21012;-84
2023/12/23 11:28:28;;;;;;;0.40;0.30;;;7.10;99.90;;;;;;5054829;28;20465;-84
2023/12/23 11:30:56;;;;;;;0.30;0.20;;;7.20;99.90;;;;;;5054855;28;20430;-84
2023/12/23 11:33:28;;;;;;;0.70;0.30;;;7.20;99.90;;;;;;5054589;28;20441;-84
2023/12/23 11:35:58;;;;;;;0.30;0.30;;;7.30;99.90;;;;;;5055715;28;20415;-84
2023/12/23 11:38:28;;;;;;;0.30;0.20;;;7.40;99.90;;;;;;5064127;28;20446;-83
2023/12/23 11:40:55;;;;;;;0.30;0.20;;;7.50;99.90;;;;;;5054513;28;20430;-82
2023/12/23 11:43:23;;;;;;;0.40;0.30;;;7.50;99.90;;;;;;5054236;28;20862;-83
2023/12/23 11:45:52;;;;;;;0.30;0.20;;;7.50;99.90;;;;;;5054744;28;20865;-83
2023/12/23 11:48:20;;;;;;;0.30;0.20;;;7.50;99.90;;;;;;5054144;28;20489;-82
2023/12/23 11:50:48;;;;;;;0.30;0.20;;;7.60;99.90;;;;;;5053854;28;20448;-84
2023/12/23 11:53:16;;;;;;;0.30;0.30;;;7.60;99.90;;;;;;5054550;28;20453;-84
2023/12/23 11:55:42;;;;;;;0.57;0.27;;;7.60;99.90;;;;;;5054322;28;20805;-84
2023/12/23 11:58:10;;;;;;;0.30;0.20;;;7.60;99.90;;;;;;5053686;28;21003;-85
2023/12/23 12:00:38;;;;;;;0.30;0.30;;;7.70;99.90;;;;;;5054000;28;20485;-84
2023/12/23 12:03:07;;;;;;;0.30;0.20;;;7.80;99.90;;;;;;5054027;28;20446;-84
2023/12/23 12:05:33;;;;;;;0.30;0.30;;;7.80;99.90;;;;;;5053946;28;20441;-84
2023/12/23 12:08:01;;;;;;;0.30;0.30;;;7.80;99.90;;;;;;5053856;28;20485;-85
2023/12/23 12:10:27;;;;;;;0.40;0.27;;;7.80;99.90;;;;;;5053773;28;20850;-84
2023/12/23 12:12:54;;;;;;;0.40;0.30;;;7.80;99.90;;;;;;5054081;28;20457;-84
2023/12/23 12:15:22;;;;;;;0.40;0.40;;;7.80;99.90;;;;;;5053839;28;20537;-84
2023/12/23 12:17:49;;;;;;;0.30;0.20;;;7.80;99.90;;;;;;5053611;28;20978;-84
2023/12/23 12:20:17;;;;;;;0.30;0.30;;;7.90;99.90;;;;;;5053775;28;20492;-84
2023/12/23 12:22:45;;;;;;;0.30;0.30;;;8.00;99.90;;;;;;5053652;28;20935;-84
2023/12/23 12:25:12;;;;;;;0.40;0.30;;;8.00;99.90;;;;;;5053843;28;20445;-84
2023/12/23 12:27:40;;;;;;;0.40;0.30;;;8.10;99.90;;;;;;5054121;28;20493;-85
2023/12/23 12:30:09;;;;;;;0.30;0.20;;;8.00;99.90;;;;;;5053997;28;20503;-84
2023/12/23 12:32:35;;;;;;;0.30;0.20;;;8.10;99.90;;;;;;5053914;28;20556;-84
2023/12/23 12:35:02;;;;;;;0.40;0.30;;;8.10;99.90;;;;;;5054610;28;20430;-84
2023/12/23 12:37:31;;;;;;;0.30;0.30;;;8.20;99.90;;;;;;5054659;28;20501;-85
2023/12/23 12:39:57;;;;;;;0.30;0.20;;;8.10;99.90;;;;;;5054870;28;20477;-84
2023/12/23 12:42:25;;;;;;;0.30;0.30;;;8.20;99.90;;;;;;5054851;28;20465;-84
2023/12/23 12:44:59;;;;;;;0.30;0.30;;;8.30;99.90;;;;;;5054539;28;20984;-83
2023/12/23 12:47:28;;;;;;;0.30;0.20;;;8.50;99.90;;;;;;5054766;28;20508;-84
2023/12/23 12:49:59;;;;;;;0.30;0.30;;;8.50;99.90;;;;;;5054362;28;20804;-84
2023/12/23 12:52:26;;;;;;;0.30;0.20;;;8.50;99.90;;;;;;5054600;28;20432;-84
2023/12/23 12:54:57;;;;;;;0.30;0.30;;;8.50;99.90;;;;;;5054367;28;20953;-84
2023/12/23 12:57:24;;;;;;;0.40;0.30;;;8.40;99.90;;;;;;5058848;28;20457;-84